sensor_id;sensor_type;location;lat;lon;timestamp;P1;durP1;ratioP1;P2;durP2;ratioP2
826;SDS011;395;48.132;11.608;2022-09-20T00:01:52;2.00;;;0.80;;
826;SDS011;395;48.132;11.608;2022-09-20T00:04:18;1.80;;;1.30;;
826;SDS011;395;48.132;11.608;2022-09-20T00:06:44;2.50;;;0.90;;
826;SDS011;395;48.132;11.608;2022-09-20T00:09:09;2.73;;;1.20;;
826;SDS011;395;48.132;11.608;2022-09-20T00:11:36;1.43;;;0.97;;
826;SDS011;395;48.132;11.608;2022-09-20T00:14:03;1.57;;;1.00;;
826;SDS011;395;48.132;11.608;2022-09-20T00:16:33;2.50;;;1.20;;
826;SDS011;395;48.132;11.608;2022-09-20T00:19:01;4.07;;;1.20;;
826;SDS011;395;48.132;11.608;2022-09-20T00:21:28;1.70;;;1.10;;
826;SDS011;395;48.132;11.608;2022-09-20T00:23:56;3.57;;;1.40;;
826;SDS011;395;48.132;11.608;2022-09-20T00:26:22;3.63;;;1.50;;
826;SDS011;395;48.132;11.608;2022-09-20T00:28:49;1.80;;;1.10;;
826;SDS011;395;48.132;11.608;2022-09-20T00:31:16;2.67;;;1.30;;
826;SDS011;395;48.132;11.608;2022-09-20T00:33:42;1.63;;;0.97;;
826;SDS011;395;48.132;11.608;2022-09-20T00:36:26;1.30;;;1.20;;
826;SDS011;395;48.132;11.608;2022-09-20T00:38:56;1.57;;;1.07;;
826;SDS011;395;48.132;11.608;2022-09-20T00:41:23;2.80;;;1.80;;
826;SDS011;395;48.132;11.608;2022-09-20T00:43:50;3.60;;;1.63;;
826;SDS011;395;48.132;11.608;2022-09-20T00:48:55;1.10;;;0.90;;
826;SDS011;395;48.132;11.608;2022-09-20T00:51:31;2.50;;;1.17;;
826;SDS011;395;48.132;11.608;2022-09-20T00:54:00;1.10;;;1.00;;
826;SDS011;395;48.132;11.608;2022-09-20T00:56:32;1.00;;;0.90;;
826;SDS011;395;48.132;11.608;2022-09-20T01:01:45;1.40;;;1.20;;
826;SDS011;395;48.132;11.608;2022-09-20T01:04:17;1.40;;;1.30;;
826;SDS011;395;48.132;11.608;2022-09-20T01:06:45;2.33;;;1.30;;
826;SDS011;395;48.132;11.608;2022-09-20T01:09:13;1.00;;;1.00;;
826;SDS011;395;48.132;11.608;2022-09-20T01:11:39;1.20;;;1.10;;
826;SDS011;395;48.132;11.608;2022-09-20T01:14:05;1.40;;;1.00;;
826;SDS011;395;48.132;11.608;2022-09-20T01:16:31;1.53;;;1.43;;
826;SDS011;395;48.132;11.608;2022-09-20T01:19:01;2.40;;;1.30;;
826;SDS011;395;48.132;11.608;2022-09-20T01:21:32;1.30;;;1.20;;
826;SDS011;395;48.132;11.608;2022-09-20T01:24:20;2.63;;;1.20;;
826;SDS011;395;48.132;11.608;2022-09-20T01:29:47;1.57;;;1.30;;
826;SDS011;395;48.132;11.608;2022-09-20T01:32:32;1.97;;;1.23;;
826;SDS011;395;48.132;11.608;2022-09-20T01:35:06;1.57;;;1.40;;
826;SDS011;395;48.132;11.608;2022-09-20T01:37:37;3.97;;;1.20;;
826;SDS011;395;48.132;11.608;2022-09-20T01:45:54;1.50;;;1.03;;
826;SDS011;395;48.132;11.608;2022-09-20T01:48:36;1.60;;;1.30;;
826;SDS011;395;48.132;11.608;2022-09-20T01:51:10;1.50;;;1.40;;
826;SDS011;395;48.132;11.608;2022-09-20T01:57:00;1.27;;;1.10;;
826;SDS011;395;48.132;11.608;2022-09-20T02:13:43;1.57;;;1.20;;
826;SDS011;395;48.132;11.608;2022-09-20T02:21:52;1.20;;;0.90;;
826;SDS011;395;48.132;11.608;2022-09-20T02:24:40;1.47;;;1.17;;
826;SDS011;395;48.132;11.608;2022-09-20T02:27:29;1.53;;;1.23;;
826;SDS011;395;48.132;11.608;2022-09-20T02:33:12;2.60;;;1.30;;
826;SDS011;395;48.132;11.608;2022-09-20T02:35:48;1.83;;;1.30;;
826;SDS011;395;48.132;11.608;2022-09-20T02:40:58;2.30;;;1.40;;
826;SDS011;395;48.132;11.608;2022-09-20T02:46:53;1.37;;;1.27;;
826;SDS011;395;48.132;11.608;2022-09-20T02:51:56;4.00;;;1.57;;
826;SDS011;395;48.132;11.608;2022-09-20T02:59:43;1.93;;;1.40;;
826;SDS011;395;48.132;11.608;2022-09-20T03:02:29;2.13;;;1.20;;
826;SDS011;395;48.132;11.608;2022-09-20T03:10:26;2.77;;;1.50;;
826;SDS011;395;48.132;11.608;2022-09-20T03:18:09;2.17;;;1.47;;
826;SDS011;395;48.132;11.608;2022-09-20T03:26:55;2.43;;;1.23;;
826;SDS011;395;48.132;11.608;2022-09-20T03:32:48;1.60;;;1.47;;
826;SDS011;395;48.132;11.608;2022-09-20T03:41:52;2.47;;;1.90;;
826;SDS011;395;48.132;11.608;2022-09-20T03:46:25;1.87;;;1.17;;
826;SDS011;395;48.132;11.608;2022-09-20T03:57:50;2.93;;;1.60;;
826;SDS011;395;48.132;11.608;2022-09-20T04:14:46;4.43;;;1.63;;
826;SDS011;395;48.132;11.608;2022-09-20T04:17:19;2.03;;;1.83;;
826;SDS011;395;48.132;11.608;2022-09-20T04:22:31;2.23;;;1.53;;
826;SDS011;395;48.132;11.608;2022-09-20T04:25:01;2.40;;;2.20;;
826;SDS011;395;48.132;11.608;2022-09-20T04:28:11;2.97;;;2.00;;
826;SDS011;395;48.132;11.608;2022-09-20T04:30:41;1.97;;;1.80;;
826;SDS011;395;48.132;11.608;2022-09-20T04:33:15;4.07;;;2.53;;
826;SDS011;395;48.132;11.608;2022-09-20T04:38:54;4.13;;;2.30;;
826;SDS011;395;48.132;11.608;2022-09-20T04:47:35;4.90;;;2.73;;
826;SDS011;395;48.132;11.608;2022-09-20T04:50:36;1.80;;;1.50;;
826;SDS011;395;48.132;11.608;2022-09-20T04:53:36;7.23;;;1.90;;
826;SDS011;395;48.132;11.608;2022-09-20T04:59:05;2.67;;;2.00;;
826;SDS011;395;48.132;11.608;2022-09-20T05:13:26;2.27;;;1.73;;
826;SDS011;395;48.132;11.608;2022-09-20T05:16:18;3.10;;;2.13;;
826;SDS011;395;48.132;11.608;2022-09-20T05:21:35;2.10;;;1.90;;
826;SDS011;395;48.132;11.608;2022-09-20T05:29:59;3.60;;;2.30;;
826;SDS011;395;48.132;11.608;2022-09-20T05:35:19;4.87;;;2.47;;
826;SDS011;395;48.132;11.608;2022-09-20T05:38:10;2.50;;;2.10;;
826;SDS011;395;48.132;11.608;2022-09-20T05:46:29;3.60;;;2.30;;
826;SDS011;395;48.132;11.608;2022-09-20T05:49:16;3.70;;;2.50;;
826;SDS011;395;48.132;11.608;2022-09-20T05:54:42;2.60;;;1.93;;
826;SDS011;395;48.132;11.608;2022-09-20T06:00:03;3.40;;;1.97;;
826;SDS011;395;48.132;11.608;2022-09-20T06:05:40;7.17;;;2.80;;
826;SDS011;395;48.132;11.608;2022-09-20T06:22:22;9.30;;;3.27;;
826;SDS011;395;48.132;11.608;2022-09-20T06:24:58;5.20;;;2.80;;
826;SDS011;395;48.132;11.608;2022-09-20T06:27:33;5.00;;;3.63;;
826;SDS011;395;48.132;11.608;2022-09-20T06:30:13;6.10;;;3.00;;
826;SDS011;395;48.132;11.608;2022-09-20T06:32:51;5.63;;;3.00;;
826;SDS011;395;48.132;11.608;2022-09-20T06:35:22;5.03;;;2.80;;
826;SDS011;395;48.132;11.608;2022-09-20T06:37:53;4.47;;;2.70;;
826;SDS011;395;48.132;11.608;2022-09-20T06:40:47;4.10;;;2.20;;
826;SDS011;395;48.132;11.608;2022-09-20T06:43:34;8.27;;;2.53;;
826;SDS011;395;48.132;11.608;2022-09-20T06:46:01;6.37;;;3.10;;
826;SDS011;395;48.132;11.608;2022-09-20T06:48:26;4.20;;;2.67;;
826;SDS011;395;48.132;11.608;2022-09-20T06:50:55;3.17;;;2.30;;
826;SDS011;395;48.132;11.608;2022-09-20T06:53:28;4.33;;;3.00;;
826;SDS011;395;48.132;11.608;2022-09-20T06:55:56;6.73;;;2.73;;
826;SDS011;395;48.132;11.608;2022-09-20T06:58:23;3.27;;;2.40;;
826;SDS011;395;48.132;11.608;2022-09-20T07:00:49;3.00;;;2.60;;
826;SDS011;395;48.132;11.608;2022-09-20T07:03:15;4.90;;;2.80;;
826;SDS011;395;48.132;11.608;2022-09-20T07:05:43;3.87;;;2.40;;
826;SDS011;395;48.132;11.608;2022-09-20T07:08:08;3.40;;;2.57;;
826;SDS011;395;48.132;11.608;2022-09-20T07:10:34;6.13;;;2.57;;
826;SDS011;395;48.132;11.608;2022-09-20T07:13:00;2.80;;;2.33;;
826;SDS011;395;48.132;11.608;2022-09-20T07:15:32;3.47;;;1.90;;
826;SDS011;395;48.132;11.608;2022-09-20T07:17:59;4.13;;;2.43;;
826;SDS011;395;48.132;11.608;2022-09-20T07:20:25;3.73;;;2.47;;
826;SDS011;395;48.132;11.608;2022-09-20T07:22:51;4.97;;;2.90;;
826;SDS011;395;48.132;11.608;2022-09-20T07:25:18;5.43;;;3.07;;
826;SDS011;395;48.132;11.608;2022-09-20T07:27:44;7.30;;;2.83;;
826;SDS011;395;48.132;11.608;2022-09-20T07:30:10;4.23;;;2.70;;
826;SDS011;395;48.132;11.608;2022-09-20T07:32:37;2.80;;;2.50;;
826;SDS011;395;48.132;11.608;2022-09-20T07:35:05;4.80;;;2.67;;
826;SDS011;395;48.132;11.608;2022-09-20T07:37:33;3.80;;;2.90;;
826;SDS011;395;48.132;11.608;2022-09-20T07:39:58;3.07;;;2.23;;
826;SDS011;395;48.132;11.608;2022-09-20T07:42:24;4.60;;;2.47;;
826;SDS011;395;48.132;11.608;2022-09-20T07:44:49;5.60;;;3.50;;
826;SDS011;395;48.132;11.608;2022-09-20T07:47:17;3.17;;;2.53;;
826;SDS011;395;48.132;11.608;2022-09-20T07:49:42;5.07;;;3.10;;
826;SDS011;395;48.132;11.608;2022-09-20T07:52:08;3.67;;;2.80;;
826;SDS011;395;48.132;11.608;2022-09-20T07:54:35;4.93;;;3.07;;
826;SDS011;395;48.132;11.608;2022-09-20T07:57:00;13.27;;;3.20;;
826;SDS011;395;48.132;11.608;2022-09-20T07:59:27;7.57;;;3.03;;
826;SDS011;395;48.132;11.608;2022-09-20T08:01:52;4.33;;;2.93;;
826;SDS011;395;48.132;11.608;2022-09-20T08:04:18;3.70;;;3.00;;
826;SDS011;395;48.132;11.608;2022-09-20T08:06:44;4.10;;;3.00;;
826;SDS011;395;48.132;11.608;2022-09-20T08:09:11;3.80;;;2.87;;
826;SDS011;395;48.132;11.608;2022-09-20T08:11:37;7.83;;;3.40;;
826;SDS011;395;48.132;11.608;2022-09-20T08:14:04;5.60;;;3.00;;
826;SDS011;395;48.132;11.608;2022-09-20T08:16:30;5.40;;;3.93;;
826;SDS011;395;48.132;11.608;2022-09-20T08:19:01;5.60;;;4.00;;
826;SDS011;395;48.132;11.608;2022-09-20T08:21:29;8.43;;;4.33;;
826;SDS011;395;48.132;11.608;2022-09-20T08:23:56;5.40;;;3.50;;
826;SDS011;395;48.132;11.608;2022-09-20T08:26:23;5.53;;;3.77;;
826;SDS011;395;48.132;11.608;2022-09-20T08:28:53;4.03;;;3.10;;
826;SDS011;395;48.132;11.608;2022-09-20T08:31:22;3.63;;;3.33;;
826;SDS011;395;48.132;11.608;2022-09-20T08:33:55;7.30;;;3.93;;
826;SDS011;395;48.132;11.608;2022-09-20T08:36:23;5.97;;;3.80;;
826;SDS011;395;48.132;11.608;2022-09-20T08:38:50;8.50;;;4.07;;
826;SDS011;395;48.132;11.608;2022-09-20T08:41:23;7.27;;;5.20;;
826;SDS011;395;48.132;11.608;2022-09-20T08:43:59;5.03;;;3.90;;
826;SDS011;395;48.132;11.608;2022-09-20T08:46:32;8.20;;;4.27;;
826;SDS011;395;48.132;11.608;2022-09-20T08:49:04;6.53;;;4.17;;
826;SDS011;395;48.132;11.608;2022-09-20T08:51:34;4.60;;;3.87;;
826;SDS011;395;48.132;11.608;2022-09-20T08:54:05;12.33;;;4.50;;
826;SDS011;395;48.132;11.608;2022-09-20T08:56:36;7.53;;;4.87;;
826;SDS011;395;48.132;11.608;2022-09-20T08:59:02;8.70;;;5.10;;
826;SDS011;395;48.132;11.608;2022-09-20T09:01:30;7.83;;;4.57;;
826;SDS011;395;48.132;11.608;2022-09-20T09:03:58;7.83;;;4.67;;
826;SDS011;395;48.132;11.608;2022-09-20T09:06:35;5.90;;;5.40;;
826;SDS011;395;48.132;11.608;2022-09-20T09:09:01;6.60;;;6.00;;
826;SDS011;395;48.132;11.608;2022-09-20T09:11:26;6.07;;;5.03;;
826;SDS011;395;48.132;11.608;2022-09-20T09:13:53;6.13;;;5.53;;
826;SDS011;395;48.132;11.608;2022-09-20T09:16:51;9.07;;;4.83;;
826;SDS011;395;48.132;11.608;2022-09-20T09:20:19;4.50;;;4.10;;
826;SDS011;395;48.132;11.608;2022-09-20T09:22:17;7.93;;;5.10;;
826;SDS011;395;48.132;11.608;2022-09-20T09:27:33;5.73;;;4.50;;
826;SDS011;395;48.132;11.608;2022-09-20T09:29:59;10.03;;;5.20;;
826;SDS011;395;48.132;11.608;2022-09-20T09:32:30;9.63;;;5.50;;
826;SDS011;395;48.132;11.608;2022-09-20T09:37:53;8.40;;;5.87;;
826;SDS011;395;48.132;11.608;2022-09-20T09:40:21;6.17;;;4.93;;
826;SDS011;395;48.132;11.608;2022-09-20T09:42:51;8.87;;;4.80;;
826;SDS011;395;48.132;11.608;2022-09-20T09:45:29;7.47;;;4.77;;
826;SDS011;395;48.132;11.608;2022-09-20T09:51:09;7.30;;;4.53;;
826;SDS011;395;48.132;11.608;2022-09-20T09:53:36;4.50;;;3.77;;
826;SDS011;395;48.132;11.608;2022-09-20T10:01:25;5.10;;;3.00;;
826;SDS011;395;48.132;11.608;2022-09-20T10:07:43;3.93;;;2.50;;
826;SDS011;395;48.132;11.608;2022-09-20T10:10:11;2.33;;;2.13;;
826;SDS011;395;48.132;11.608;2022-09-20T10:16:00;4.33;;;2.43;;
826;SDS011;395;48.132;11.608;2022-09-20T10:21:25;6.27;;;2.80;;
826;SDS011;395;48.132;11.608;2022-09-20T10:26:41;4.60;;;2.90;;
826;SDS011;395;48.132;11.608;2022-09-20T10:32:12;2.70;;;2.50;;
826;SDS011;395;48.132;11.608;2022-09-20T10:37:32;6.30;;;2.90;;
826;SDS011;395;48.132;11.608;2022-09-20T10:40:24;2.97;;;2.40;;
826;SDS011;395;48.132;11.608;2022-09-20T10:43:15;2.77;;;2.10;;
826;SDS011;395;48.132;11.608;2022-09-20T10:51:20;2.77;;;2.10;;
826;SDS011;395;48.132;11.608;2022-09-20T11:09:33;2.30;;;2.10;;
826;SDS011;395;48.132;11.608;2022-09-20T11:14:43;4.13;;;2.23;;
826;SDS011;395;48.132;11.608;2022-09-20T11:17:37;2.60;;;2.40;;
826;SDS011;395;48.132;11.608;2022-09-20T11:20:21;5.43;;;2.33;;
826;SDS011;395;48.132;11.608;2022-09-20T11:22:57;4.17;;;2.23;;
826;SDS011;395;48.132;11.608;2022-09-20T11:25:59;5.53;;;2.23;;
826;SDS011;395;48.132;11.608;2022-09-20T11:28:41;4.50;;;2.40;;
826;SDS011;395;48.132;11.608;2022-09-20T11:36:56;3.63;;;2.40;;
826;SDS011;395;48.132;11.608;2022-09-20T11:39:28;3.50;;;2.13;;
826;SDS011;395;48.132;11.608;2022-09-20T11:42:10;3.70;;;2.30;;
826;SDS011;395;48.132;11.608;2022-09-20T11:44:40;6.03;;;2.57;;
826;SDS011;395;48.132;11.608;2022-09-20T11:52:09;2.77;;;1.77;;
826;SDS011;395;48.132;11.608;2022-09-20T11:57:41;3.00;;;1.60;;
826;SDS011;395;48.132;11.608;2022-09-20T12:00:07;1.57;;;1.40;;
826;SDS011;395;48.132;11.608;2022-09-20T12:02:36;2.43;;;1.93;;
826;SDS011;395;48.132;11.608;2022-09-20T12:05:57;4.50;;;1.73;;
826;SDS011;395;48.132;11.608;2022-09-20T12:08:01;3.80;;;1.50;;
826;SDS011;395;48.132;11.608;2022-09-20T12:10:30;1.97;;;1.77;;
826;SDS011;395;48.132;11.608;2022-09-20T12:13:00;2.83;;;1.63;;
826;SDS011;395;48.132;11.608;2022-09-20T12:15:28;3.50;;;2.00;;
826;SDS011;395;48.132;11.608;2022-09-20T12:18:26;3.40;;;1.70;;
826;SDS011;395;48.132;11.608;2022-09-20T12:29:09;2.10;;;1.73;;
826;SDS011;395;48.132;11.608;2022-09-20T12:39:05;5.67;;;2.13;;
826;SDS011;395;48.132;11.608;2022-09-20T13:03:28;3.50;;;1.70;;
826;SDS011;395;48.132;11.608;2022-09-20T13:09:16;3.27;;;1.40;;
826;SDS011;395;48.132;11.608;2022-09-20T13:16:48;2.10;;;1.30;;
826;SDS011;395;48.132;11.608;2022-09-20T13:21:51;4.93;;;1.53;;
826;SDS011;395;48.132;11.608;2022-09-20T13:24:22;3.10;;;1.70;;
826;SDS011;395;48.132;11.608;2022-09-20T13:26:49;6.63;;;2.03;;
826;SDS011;395;48.132;11.608;2022-09-20T13:29:36;8.07;;;1.90;;
826;SDS011;395;48.132;11.608;2022-09-20T13:35:09;3.63;;;1.83;;
826;SDS011;395;48.132;11.608;2022-09-20T13:37:59;1.73;;;1.40;;
826;SDS011;395;48.132;11.608;2022-09-20T13:40:42;3.07;;;1.60;;
826;SDS011;395;48.132;11.608;2022-09-20T13:48:40;3.70;;;1.83;;
826;SDS011;395;48.132;11.608;2022-09-20T13:57:00;2.00;;;1.70;;
826;SDS011;395;48.132;11.608;2022-09-20T13:59:32;3.13;;;1.73;;
826;SDS011;395;48.132;11.608;2022-09-20T14:02:04;2.80;;;1.90;;
826;SDS011;395;48.132;11.608;2022-09-20T14:04:42;2.97;;;1.73;;
826;SDS011;395;48.132;11.608;2022-09-20T14:07:08;4.57;;;1.63;;
826;SDS011;395;48.132;11.608;2022-09-20T14:09:35;4.90;;;2.00;;
826;SDS011;395;48.132;11.608;2022-09-20T14:12:05;2.23;;;1.80;;
826;SDS011;395;48.132;11.608;2022-09-20T14:14:32;3.00;;;1.73;;
826;SDS011;395;48.132;11.608;2022-09-20T14:17:00;4.03;;;1.60;;
826;SDS011;395;48.132;11.608;2022-09-20T14:19:32;3.20;;;1.70;;
826;SDS011;395;48.132;11.608;2022-09-20T14:22:04;2.00;;;1.60;;
826;SDS011;395;48.132;11.608;2022-09-20T14:24:31;3.93;;;2.27;;
826;SDS011;395;48.132;11.608;2022-09-20T14:34:42;3.47;;;1.40;;
826;SDS011;395;48.132;11.608;2022-09-20T14:37:24;3.20;;;1.60;;
826;SDS011;395;48.132;11.608;2022-09-20T14:39:57;3.23;;;1.63;;
826;SDS011;395;48.132;11.608;2022-09-20T14:44:56;3.40;;;1.93;;
826;SDS011;395;48.132;11.608;2022-09-20T14:47:26;6.07;;;2.00;;
826;SDS011;395;48.132;11.608;2022-09-20T14:50:03;1.80;;;1.50;;
826;SDS011;395;48.132;11.608;2022-09-20T14:52:57;2.43;;;1.70;;
826;SDS011;395;48.132;11.608;2022-09-20T14:55:25;5.50;;;1.70;;
826;SDS011;395;48.132;11.608;2022-09-20T14:57:55;4.37;;;1.73;;
826;SDS011;395;48.132;11.608;2022-09-20T15:00:25;5.43;;;1.50;;
826;SDS011;395;48.132;11.608;2022-09-20T15:02:53;2.77;;;1.50;;
826;SDS011;395;48.132;11.608;2022-09-20T15:05:23;5.10;;;2.03;;
826;SDS011;395;48.132;11.608;2022-09-20T15:07:54;4.77;;;1.47;;
826;SDS011;395;48.132;11.608;2022-09-20T15:10:21;4.43;;;2.20;;
826;SDS011;395;48.132;11.608;2022-09-20T15:12:47;3.73;;;1.67;;
826;SDS011;395;48.132;11.608;2022-09-20T15:15:14;2.93;;;1.43;;
826;SDS011;395;48.132;11.608;2022-09-20T15:17:41;7.03;;;1.80;;
826;SDS011;395;48.132;11.608;2022-09-20T15:20:11;3.03;;;1.30;;
826;SDS011;395;48.132;11.608;2022-09-20T15:22:45;2.40;;;1.30;;
826;SDS011;395;48.132;11.608;2022-09-20T15:25:13;2.67;;;1.23;;
826;SDS011;395;48.132;11.608;2022-09-20T15:27:44;2.90;;;1.60;;
826;SDS011;395;48.132;11.608;2022-09-20T15:30:12;3.87;;;1.70;;
826;SDS011;395;48.132;11.608;2022-09-20T15:32:40;2.63;;;1.50;;
826;SDS011;395;48.132;11.608;2022-09-20T15:35:09;3.87;;;1.33;;
826;SDS011;395;48.132;11.608;2022-09-20T15:37:37;3.70;;;1.10;;
826;SDS011;395;48.132;11.608;2022-09-20T15:40:03;3.63;;;1.80;;
826;SDS011;395;48.132;11.608;2022-09-20T15:42:30;2.17;;;1.40;;
826;SDS011;395;48.132;11.608;2022-09-20T15:44:56;3.30;;;1.90;;
826;SDS011;395;48.132;11.608;2022-09-20T15:47:21;2.57;;;1.40;;
826;SDS011;395;48.132;11.608;2022-09-20T15:49:48;3.07;;;1.57;;
826;SDS011;395;48.132;11.608;2022-09-20T15:52:14;2.77;;;1.40;;
826;SDS011;395;48.132;11.608;2022-09-20T15:54:40;3.30;;;1.40;;
826;SDS011;395;48.132;11.608;2022-09-20T15:57:07;2.03;;;1.50;;
826;SDS011;395;48.132;11.608;2022-09-20T15:59:33;3.23;;;1.53;;
826;SDS011;395;48.132;11.608;2022-09-20T16:01:58;2.33;;;1.43;;
826;SDS011;395;48.132;11.608;2022-09-20T16:04:25;1.63;;;1.50;;
826;SDS011;395;48.132;11.608;2022-09-20T16:06:53;2.00;;;1.70;;
826;SDS011;395;48.132;11.608;2022-09-20T16:09:19;3.07;;;1.67;;
826;SDS011;395;48.132;11.608;2022-09-20T16:11:45;2.13;;;1.67;;
826;SDS011;395;48.132;11.608;2022-09-20T16:14:12;3.00;;;1.60;;
826;SDS011;395;48.132;11.608;2022-09-20T16:16:38;5.53;;;2.20;;
826;SDS011;395;48.132;11.608;2022-09-20T16:19:03;2.20;;;1.70;;
826;SDS011;395;48.132;11.608;2022-09-20T16:21:42;3.63;;;1.23;;
826;SDS011;395;48.132;11.608;2022-09-20T16:24:11;2.23;;;1.63;;
826;SDS011;395;48.132;11.608;2022-09-20T16:26:37;2.33;;;1.53;;
826;SDS011;395;48.132;11.608;2022-09-20T16:29:03;3.10;;;1.40;;
826;SDS011;395;48.132;11.608;2022-09-20T16:34:25;2.20;;;1.33;;
826;SDS011;395;48.132;11.608;2022-09-20T16:37:00;2.20;;;1.60;;
826;SDS011;395;48.132;11.608;2022-09-20T16:39:32;4.07;;;1.80;;
826;SDS011;395;48.132;11.608;2022-09-20T16:41:59;3.27;;;1.47;;
826;SDS011;395;48.132;11.608;2022-09-20T16:44:27;2.70;;;1.67;;
826;SDS011;395;48.132;11.608;2022-09-20T16:46:53;2.73;;;1.60;;
826;SDS011;395;48.132;11.608;2022-09-20T16:49:19;5.57;;;1.67;;
826;SDS011;395;48.132;11.608;2022-09-20T16:51:44;3.47;;;1.60;;
826;SDS011;395;48.132;11.608;2022-09-20T16:54:12;2.83;;;1.90;;
826;SDS011;395;48.132;11.608;2022-09-20T16:56:40;5.00;;;1.70;;
826;SDS011;395;48.132;11.608;2022-09-20T16:59:09;3.40;;;1.50;;
826;SDS011;395;48.132;11.608;2022-09-20T17:01:36;2.27;;;1.60;;
826;SDS011;395;48.132;11.608;2022-09-20T17:04:03;2.93;;;1.80;;
826;SDS011;395;48.132;11.608;2022-09-20T17:06:30;2.73;;;1.43;;
826;SDS011;395;48.132;11.608;2022-09-20T17:08:58;2.87;;;1.90;;
826;SDS011;395;48.132;11.608;2022-09-20T17:11:26;4.50;;;1.67;;
826;SDS011;395;48.132;11.608;2022-09-20T17:13:54;3.00;;;1.53;;
826;SDS011;395;48.132;11.608;2022-09-20T17:16:22;3.77;;;2.30;;
826;SDS011;395;48.132;11.608;2022-09-20T17:21:19;2.13;;;1.40;;
826;SDS011;395;48.132;11.608;2022-09-20T17:23:46;2.17;;;1.10;;
826;SDS011;395;48.132;11.608;2022-09-20T17:26:23;2.20;;;1.60;;
826;SDS011;395;48.132;11.608;2022-09-20T17:28:51;3.40;;;2.00;;
826;SDS011;395;48.132;11.608;2022-09-20T17:31:20;3.37;;;2.20;;
826;SDS011;395;48.132;11.608;2022-09-20T17:33:49;3.23;;;2.33;;
826;SDS011;395;48.132;11.608;2022-09-20T17:36:16;2.87;;;1.43;;
826;SDS011;395;48.132;11.608;2022-09-20T17:38:44;3.43;;;1.70;;
826;SDS011;395;48.132;11.608;2022-09-20T17:41:12;4.03;;;2.23;;
826;SDS011;395;48.132;11.608;2022-09-20T17:43:39;2.60;;;1.80;;
826;SDS011;395;48.132;11.608;2022-09-20T17:46:08;2.83;;;1.90;;
826;SDS011;395;48.132;11.608;2022-09-20T17:48:44;3.63;;;1.50;;
826;SDS011;395;48.132;11.608;2022-09-20T17:51:15;6.67;;;2.43;;
826;SDS011;395;48.132;11.608;2022-09-20T17:53:42;2.00;;;1.20;;
826;SDS011;395;48.132;11.608;2022-09-20T17:56:09;3.83;;;1.93;;
826;SDS011;395;48.132;11.608;2022-09-20T17:58:36;4.87;;;1.87;;
826;SDS011;395;48.132;11.608;2022-09-20T18:01:03;3.40;;;1.83;;
826;SDS011;395;48.132;11.608;2022-09-20T18:03:33;6.80;;;1.93;;
826;SDS011;395;48.132;11.608;2022-09-20T18:06:05;2.40;;;1.47;;
826;SDS011;395;48.132;11.608;2022-09-20T18:08:46;5.90;;;1.80;;
826;SDS011;395;48.132;11.608;2022-09-20T18:11:17;4.00;;;2.13;;
826;SDS011;395;48.132;11.608;2022-09-20T18:13:44;3.43;;;1.83;;
826;SDS011;395;48.132;11.608;2022-09-20T18:16:10;7.43;;;2.30;;
826;SDS011;395;48.132;11.608;2022-09-20T18:18:37;4.17;;;2.60;;
826;SDS011;395;48.132;11.608;2022-09-20T18:21:17;3.50;;;2.43;;
826;SDS011;395;48.132;11.608;2022-09-20T18:23:45;5.50;;;2.67;;
826;SDS011;395;48.132;11.608;2022-09-20T18:26:13;5.47;;;2.80;;
826;SDS011;395;48.132;11.608;2022-09-20T18:28:45;6.00;;;2.70;;
826;SDS011;395;48.132;11.608;2022-09-20T18:31:12;4.03;;;2.03;;
826;SDS011;395;48.132;11.608;2022-09-20T18:33:37;4.93;;;2.30;;
826;SDS011;395;48.132;11.608;2022-09-20T18:36:05;3.67;;;1.80;;
826;SDS011;395;48.132;11.608;2022-09-20T18:38:31;4.97;;;1.77;;
826;SDS011;395;48.132;11.608;2022-09-20T18:40:57;4.00;;;3.13;;
826;SDS011;395;48.132;11.608;2022-09-20T18:43:27;5.20;;;2.10;;
826;SDS011;395;48.132;11.608;2022-09-20T18:45:54;3.40;;;1.90;;
826;SDS011;395;48.132;11.608;2022-09-20T18:48:21;6.97;;;3.27;;
826;SDS011;395;48.132;11.608;2022-09-20T18:51:02;5.53;;;2.60;;
826;SDS011;395;48.132;11.608;2022-09-20T18:53:29;4.20;;;1.77;;
826;SDS011;395;48.132;11.608;2022-09-20T18:56:47;4.27;;;2.10;;
826;SDS011;395;48.132;11.608;2022-09-20T18:58:55;2.17;;;1.70;;
826;SDS011;395;48.132;11.608;2022-09-20T19:07:10;6.17;;;2.07;;
826;SDS011;395;48.132;11.608;2022-09-20T19:09:51;3.20;;;1.80;;
826;SDS011;395;48.132;11.608;2022-09-20T19:23:40;4.27;;;1.83;;
826;SDS011;395;48.132;11.608;2022-09-20T19:26:14;2.10;;;1.80;;
826;SDS011;395;48.132;11.608;2022-09-20T19:28:48;2.20;;;1.50;;
826;SDS011;395;48.132;11.608;2022-09-20T19:31:18;2.67;;;1.80;;
826;SDS011;395;48.132;11.608;2022-09-20T19:33:54;3.33;;;1.93;;
826;SDS011;395;48.132;11.608;2022-09-20T19:36:21;3.10;;;1.57;;
826;SDS011;395;48.132;11.608;2022-09-20T19:39:05;2.17;;;1.83;;
826;SDS011;395;48.132;11.608;2022-09-20T19:41:55;5.57;;;2.00;;
826;SDS011;395;48.132;11.608;2022-09-20T19:49:54;2.17;;;1.77;;
826;SDS011;395;48.132;11.608;2022-09-20T19:52:27;2.77;;;1.60;;
826;SDS011;395;48.132;11.608;2022-09-20T19:54:53;2.10;;;1.73;;
826;SDS011;395;48.132;11.608;2022-09-20T19:57:20;2.20;;;1.87;;
826;SDS011;395;48.132;11.608;2022-09-20T19:59:59;1.73;;;1.57;;
826;SDS011;395;48.132;11.608;2022-09-20T20:02:24;2.47;;;2.00;;
826;SDS011;395;48.132;11.608;2022-09-20T20:04:50;4.57;;;2.77;;
826;SDS011;395;48.132;11.608;2022-09-20T20:12:46;3.13;;;1.53;;
826;SDS011;395;48.132;11.608;2022-09-20T20:15:59;3.50;;;1.80;;
826;SDS011;395;48.132;11.608;2022-09-20T20:18:37;2.90;;;1.60;;
826;SDS011;395;48.132;11.608;2022-09-20T20:21:15;3.20;;;1.77;;
826;SDS011;395;48.132;11.608;2022-09-20T20:24:19;1.63;;;1.53;;
826;SDS011;395;48.132;11.608;2022-09-20T20:26:51;4.00;;;1.63;;
826;SDS011;395;48.132;11.608;2022-09-20T20:29:16;5.20;;;1.80;;
826;SDS011;395;48.132;11.608;2022-09-20T20:31:42;3.23;;;1.77;;
826;SDS011;395;48.132;11.608;2022-09-20T20:34:08;3.90;;;1.80;;
826;SDS011;395;48.132;11.608;2022-09-20T20:36:35;2.43;;;1.73;;
826;SDS011;395;48.132;11.608;2022-09-20T20:39:02;5.80;;;3.23;;
826;SDS011;395;48.132;11.608;2022-09-20T20:41:27;3.60;;;1.97;;
826;SDS011;395;48.132;11.608;2022-09-20T20:43:55;2.40;;;1.70;;
826;SDS011;395;48.132;11.608;2022-09-20T20:46:21;2.50;;;1.70;;
826;SDS011;395;48.132;11.608;2022-09-20T20:48:47;4.80;;;2.00;;
826;SDS011;395;48.132;11.608;2022-09-20T20:51:14;2.60;;;1.80;;
826;SDS011;395;48.132;11.608;2022-09-20T20:53:46;4.43;;;2.10;;
826;SDS011;395;48.132;11.608;2022-09-20T20:56:16;7.87;;;2.20;;
826;SDS011;395;48.132;11.608;2022-09-20T20:58:44;4.53;;;2.00;;
826;SDS011;395;48.132;11.608;2022-09-20T21:03:41;2.60;;;2.40;;
826;SDS011;395;48.132;11.608;2022-09-20T21:06:09;2.67;;;2.00;;
826;SDS011;395;48.132;11.608;2022-09-20T21:08:37;4.23;;;2.50;;
826;SDS011;395;48.132;11.608;2022-09-20T21:11:08;3.77;;;1.93;;
826;SDS011;395;48.132;11.608;2022-09-20T21:13:42;3.40;;;1.93;;
826;SDS011;395;48.132;11.608;2022-09-20T21:16:08;3.30;;;2.00;;
826;SDS011;395;48.132;11.608;2022-09-20T21:18:36;4.03;;;2.47;;
826;SDS011;395;48.132;11.608;2022-09-20T21:21:03;6.43;;;3.17;;
826;SDS011;395;48.132;11.608;2022-09-20T21:23:41;5.00;;;2.80;;
826;SDS011;395;48.132;11.608;2022-09-20T21:26:07;2.30;;;1.83;;
826;SDS011;395;48.132;11.608;2022-09-20T21:28:35;3.93;;;2.23;;
826;SDS011;395;48.132;11.608;2022-09-20T21:31:03;4.77;;;2.53;;
826;SDS011;395;48.132;11.608;2022-09-20T21:33:33;4.50;;;2.33;;
826;SDS011;395;48.132;11.608;2022-09-20T21:36:02;3.53;;;2.20;;
826;SDS011;395;48.132;11.608;2022-09-20T21:38:28;3.00;;;2.20;;
826;SDS011;395;48.132;11.608;2022-09-20T21:41:01;3.70;;;2.73;;
826;SDS011;395;48.132;11.608;2022-09-20T21:43:38;3.93;;;2.67;;
826;SDS011;395;48.132;11.608;2022-09-20T21:46:12;4.70;;;2.80;;
826;SDS011;395;48.132;11.608;2022-09-20T21:48:46;3.27;;;2.07;;